createdAt,value
2023-01-25T00:02:19.123Z,6.80
2023-01-25T00:04:45.661Z,5.97
2023-01-25T00:07:12.157Z,7.60
2023-01-25T00:09:38.672Z,6.83
2023-01-25T00:12:05.420Z,5.60
2023-01-25T00:14:32.006Z,9.27
2023-01-25T00:16:58.473Z,7.00
2023-01-25T00:19:24.990Z,7.30
2023-01-25T00:21:51.501Z,7.37
2023-01-25T00:24:18.398Z,5.93
2023-01-25T00:26:45.045Z,6.43
2023-01-25T00:29:13.999Z,6.60
2023-01-25T00:31:40.516Z,9.37
2023-01-25T00:34:37.811Z,7.90
2023-01-25T00:37:18.379Z,8.30
2023-01-25T00:39:45.059Z,8.67
2023-01-25T00:42:12.504Z,8.53
2023-01-25T00:44:39.450Z,9.13
2023-01-25T00:47:10.020Z,6.90
2023-01-25T00:49:37.779Z,10.60
2023-01-25T00:52:04.535Z,9.00
2023-01-25T00:54:31.328Z,8.67
2023-01-25T00:56:57.961Z,9.20
2023-01-25T00:59:25.386Z,7.43
2023-01-25T01:01:53.588Z,7.70
2023-01-25T01:04:20.907Z,8.43
2023-01-25T01:06:47.509Z,9.13
2023-01-25T01:09:16.663Z,11.70
2023-01-25T01:11:43.758Z,8.50
2023-01-25T01:14:11.085Z,7.70
2023-01-25T01:16:37.810Z,6.97
2023-01-25T01:19:05.141Z,9.23
2023-01-25T01:21:31.977Z,10.07
2023-01-25T01:23:58.990Z,9.17
2023-01-25T01:26:25.546Z,9.87
2023-01-25T01:28:52.237Z,12.50
2023-01-25T01:31:22.739Z,11.30
2023-01-25T01:34:04.941Z,10.10
2023-01-25T01:36:31.547Z,12.57
2023-01-25T01:38:59.793Z,9.90
2023-01-25T01:41:27.043Z,9.53
2023-01-25T01:43:54.556Z,10.70
2023-01-25T01:46:34.503Z,9.17
2023-01-25T01:49:06.301Z,11.93
2023-01-25T01:51:38.523Z,12.80
2023-01-25T01:54:17.758Z,13.30
2023-01-25T01:56:55.389Z,8.70
2023-01-25T01:59:26.852Z,9.00
2023-01-25T02:01:54.212Z,11.20
2023-01-25T02:04:44.442Z,8.77
2023-01-25T02:07:35.280Z,9.70
2023-01-25T02:10:04.594Z,10.23
2023-01-25T02:12:32.101Z,11.83
2023-01-25T02:14:59.887Z,12.73
2023-01-25T02:17:29.280Z,11.20
2023-01-25T02:20:06.932Z,15.00
2023-01-25T02:22:44.998Z,12.80
2023-01-25T02:25:14.276Z,10.03
2023-01-25T02:27:46.169Z,12.50
2023-01-25T02:30:13.130Z,13.90
2023-01-25T02:32:39.665Z,11.60
2023-01-25T02:35:07.238Z,15.47
2023-01-25T02:37:34.166Z,15.80
2023-01-25T02:40:01.066Z,14.40
2023-01-25T02:42:31.778Z,12.60
2023-01-25T02:45:00.502Z,15.80
2023-01-25T02:47:27.005Z,16.60
2023-01-25T02:49:53.549Z,17.90
2023-01-25T02:52:20.437Z,15.13
2023-01-25T02:54:46.957Z,20.13
2023-01-25T02:57:13.502Z,19.47
2023-01-25T02:59:42.862Z,14.37
2023-01-25T03:02:10.860Z,18.57
2023-01-25T03:04:37.404Z,14.73
2023-01-25T03:07:04.371Z,17.33
2023-01-25T03:09:30.954Z,17.03
2023-01-25T03:11:58.059Z,13.53
2023-01-25T03:14:24.728Z,16.40
2023-01-25T03:16:51.273Z,16.60
2023-01-25T03:19:20.954Z,19.00
2023-01-25T03:21:47.545Z,18.80
2023-01-25T03:24:14.440Z,17.50
2023-01-25T03:27:04.257Z,17.43
2023-01-25T03:29:36.276Z,18.40
2023-01-25T03:32:08.301Z,16.87
2023-01-25T03:34:35.466Z,12.73
2023-01-25T03:37:03.493Z,15.77
2023-01-25T03:39:31.619Z,18.27
2023-01-25T03:41:58.255Z,18.00
2023-01-25T03:44:25.193Z,18.07
2023-01-25T03:46:51.879Z,16.80
2023-01-25T03:49:19.588Z,19.83
2023-01-25T03:51:46.120Z,16.27
2023-01-25T03:54:13.190Z,18.73
2023-01-25T03:56:40.142Z,16.50
2023-01-25T03:59:15.990Z,14.60
2023-01-25T04:01:44.200Z,15.10
2023-01-25T04:04:10.700Z,13.30
2023-01-25T04:06:39.514Z,15.90
2023-01-25T04:09:06.916Z,15.80
2023-01-25T04:11:38.779Z,17.63
2023-01-25T04:14:05.517Z,16.13
2023-01-25T04:16:40.102Z,17.53
2023-01-25T04:19:28.853Z,16.57
2023-01-25T04:21:58.629Z,19.03
2023-01-25T04:24:30.940Z,17.60
2023-01-25T04:26:58.006Z,18.00
2023-01-25T04:29:39.176Z,16.67
2023-01-25T04:32:08.370Z,15.00
2023-01-25T04:34:35.193Z,17.97
2023-01-25T04:37:02.025Z,16.97
2023-01-25T04:39:33.288Z,16.63
2023-01-25T04:41:59.922Z,17.40
2023-01-25T04:44:26.445Z,16.17
2023-01-25T04:46:53.249Z,24.97
2023-01-25T04:49:20.258Z,14.73
2023-01-25T04:51:46.782Z,16.30
2023-01-25T04:54:13.614Z,25.30
2023-01-25T04:56:40.552Z,15.80
2023-01-25T04:59:07.628Z,15.60
2023-01-25T05:01:34.363Z,19.00
2023-01-25T05:04:04.851Z,16.17
2023-01-25T05:06:38.504Z,16.00
2023-01-25T05:09:05.947Z,17.93
2023-01-25T05:11:34.492Z,15.90
2023-01-25T05:14:05.877Z,17.57
2023-01-25T05:16:33.791Z,15.40
2023-01-25T05:19:01.668Z,14.90
2023-01-25T05:21:59.051Z,15.07
2023-01-25T05:24:32.167Z,15.00
2023-01-25T05:27:05.679Z,19.10
2023-01-25T05:29:56.785Z,18.03
2023-01-25T05:32:31.011Z,18.10
2023-01-25T05:35:00.627Z,16.07
2023-01-25T05:37:27.382Z,16.77
2023-01-25T05:39:59.439Z,19.20
2023-01-25T05:42:26.033Z,15.60
2023-01-25T05:44:52.709Z,21.13
2023-01-25T05:47:19.290Z,18.20
2023-01-25T05:49:46.435Z,17.37
2023-01-25T05:52:32.297Z,15.07
2023-01-25T05:54:59.689Z,16.87
2023-01-25T05:57:26.261Z,17.93
2023-01-25T05:59:53.093Z,15.43
2023-01-25T06:02:19.913Z,21.50
2023-01-25T06:04:46.825Z,16.77
2023-01-25T06:07:13.996Z,17.00
2023-01-25T06:09:41.128Z,15.80
2023-01-25T06:12:08.109Z,14.37
2023-01-25T06:14:34.665Z,14.40
2023-01-25T06:17:02.644Z,16.17
2023-01-25T06:19:49.124Z,17.83
2023-01-25T06:22:26.974Z,14.30
2023-01-25T06:24:53.464Z,15.00
2023-01-25T06:27:20.347Z,13.50
2023-01-25T06:29:46.989Z,14.40
2023-01-25T06:32:13.566Z,17.07
2023-01-25T06:34:40.353Z,16.97
2023-01-25T06:37:10.909Z,15.33
2023-01-25T06:39:37.433Z,14.80
2023-01-25T06:42:04.086Z,12.73
2023-01-25T06:44:31.568Z,14.53
2023-01-25T06:46:58.094Z,14.77
2023-01-25T06:49:24.724Z,15.63
2023-01-25T06:51:51.257Z,16.23
2023-01-25T06:54:17.973Z,13.10
2023-01-25T06:56:44.477Z,14.47
2023-01-25T06:59:11.004Z,15.70
2023-01-25T07:01:37.656Z,16.40
2023-01-25T07:04:04.383Z,18.20
2023-01-25T07:06:33.716Z,12.93
2023-01-25T07:09:05.242Z,13.50
2023-01-25T07:11:31.768Z,18.50
2023-01-25T07:13:58.343Z,15.50
2023-01-25T07:16:25.059Z,12.80
2023-01-25T07:18:51.578Z,13.77
2023-01-25T07:21:21.172Z,17.63
2023-01-25T07:23:49.154Z,14.00
2023-01-25T07:26:17.562Z,13.23
2023-01-25T07:28:45.226Z,12.53
2023-01-25T07:31:12.133Z,13.60
2023-01-25T07:33:38.728Z,14.27
2023-01-25T07:36:07.620Z,17.60
2023-01-25T07:38:34.570Z,15.43
2023-01-25T07:41:01.222Z,18.33
2023-01-25T07:43:28.093Z,15.03
2023-01-25T07:46:00.667Z,10.47
2023-01-25T07:48:27.663Z,17.30
2023-01-25T07:51:22.504Z,17.30
2023-01-25T07:54:04.110Z,13.60
2023-01-25T07:56:36.452Z,12.00
2023-01-25T07:59:03.357Z,13.03
2023-01-25T08:01:34.062Z,16.10
2023-01-25T08:04:01.273Z,15.37
2023-01-25T08:06:38.654Z,13.90
2023-01-25T08:09:12.397Z,14.30
2023-01-25T08:11:39.008Z,15.23
2023-01-25T08:14:05.747Z,15.70
2023-01-25T08:16:32.773Z,18.03
2023-01-25T08:19:01.092Z,14.00
2023-01-25T08:21:31.291Z,14.83
2023-01-25T08:23:59.685Z,16.60
2023-01-25T08:26:27.200Z,16.80
2023-01-25T08:28:54.214Z,12.83
2023-01-25T08:31:29.433Z,17.60
2023-01-25T08:33:56.612Z,18.73
2023-01-25T08:36:27.923Z,13.57
2023-01-25T08:38:59.784Z,14.53
2023-01-25T08:41:28.713Z,17.10
2023-01-25T08:43:56.162Z,16.63
2023-01-25T08:46:24.602Z,14.23
2023-01-25T08:48:55.742Z,15.83
2023-01-25T08:51:24.066Z,15.77
2023-01-25T08:53:50.565Z,18.03
2023-01-25T08:56:18.086Z,13.97
2023-01-25T08:58:47.285Z,19.20
2023-01-25T09:01:16.757Z,19.53
2023-01-25T09:03:46.419Z,15.23
2023-01-25T09:06:14.031Z,19.27
2023-01-25T09:08:40.851Z,15.30
2023-01-25T09:11:14.621Z,16.30
2023-01-25T09:13:43.559Z,15.90
2023-01-25T09:16:15.725Z,16.57
2023-01-25T09:18:44.405Z,19.40
2023-01-25T09:21:13.238Z,18.60
2023-01-25T09:23:50.547Z,15.30
2023-01-25T09:26:19.187Z,18.50
2023-01-25T09:28:51.840Z,19.90
2023-01-25T09:31:22.848Z,15.53
2023-01-25T09:33:59.323Z,16.00
2023-01-25T09:36:26.012Z,14.27
2023-01-25T09:38:53.132Z,14.83
2023-01-25T09:41:19.575Z,15.37
2023-01-25T09:44:14.606Z,11.70
2023-01-25T09:46:49.285Z,12.33
2023-01-25T09:49:34.329Z,13.83
2023-01-25T09:52:28.266Z,13.07
2023-01-25T09:54:54.886Z,13.07
2023-01-25T09:57:30.065Z,14.77
2023-01-25T09:59:56.652Z,16.07
2023-01-25T10:02:47.590Z,16.90
2023-01-25T10:05:18.573Z,17.73
2023-01-25T10:08:00.481Z,15.03
2023-01-25T10:10:35.833Z,16.50
2023-01-25T10:13:05.808Z,19.07
2023-01-25T10:15:43.800Z,21.10
2023-01-25T10:18:26.297Z,21.63
2023-01-25T10:21:01.802Z,18.13
2023-01-25T10:23:42.442Z,21.83
2023-01-25T10:26:34.264Z,19.80
2023-01-25T10:29:17.253Z,19.93
2023-01-25T10:31:50.362Z,25.57
2023-01-25T10:34:20.797Z,26.33
2023-01-25T10:36:52.675Z,23.33
2023-01-25T10:39:19.582Z,21.57
2023-01-25T10:41:55.858Z,25.93
2023-01-25T10:44:25.480Z,22.67
2023-01-25T10:46:57.685Z,21.77
2023-01-25T10:49:39.491Z,18.63
2023-01-25T10:52:15.909Z,24.27
2023-01-25T10:54:42.851Z,26.03
2023-01-25T10:57:17.115Z,24.83
2023-01-25T10:59:47.965Z,27.07
2023-01-25T11:02:39.338Z,25.70
2023-01-25T11:05:28.538Z,20.63
2023-01-25T11:07:55.692Z,24.10
2023-01-25T11:10:32.545Z,33.17
2023-01-25T11:13:19.240Z,26.87
2023-01-25T11:15:49.389Z,31.47
2023-01-25T11:18:21.762Z,21.83
2023-01-25T11:21:04.154Z,30.40
2023-01-25T11:23:32.207Z,23.47
2023-01-25T11:26:14.422Z,25.17
2023-01-25T11:28:41.873Z,20.60
2023-01-25T11:31:12.692Z,36.03
2023-01-25T11:33:41.051Z,23.87
2023-01-25T11:36:16.207Z,31.83
2023-01-25T11:39:14.536Z,26.87
2023-01-25T11:41:46.798Z,29.70
2023-01-25T11:44:21.757Z,25.63
2023-01-25T11:46:59.704Z,52.00
2023-01-25T11:49:43.539Z,58.80
2023-01-25T11:52:31.692Z,35.00
2023-01-25T11:55:42.232Z,34.60
2023-01-25T11:58:23.103Z,44.93
2023-01-25T12:01:04.924Z,62.40
2023-01-25T12:03:51.522Z,33.10
2023-01-25T12:06:36.683Z,44.73
2023-01-25T12:09:12.111Z,33.07
2023-01-25T12:12:06.743Z,34.27
2023-01-25T12:15:02.711Z,37.70
2023-01-25T12:17:46.050Z,36.00
2023-01-25T12:20:31.612Z,24.70
2023-01-25T12:23:25.749Z,25.13
2023-01-25T12:26:09.836Z,28.20
2023-01-25T12:28:45.005Z,23.57
2023-01-25T12:31:24.144Z,36.33
2023-01-25T12:33:58.656Z,23.33
2023-01-25T12:36:32.092Z,37.83
2023-01-25T12:39:13.627Z,21.20
2023-01-25T12:41:50.247Z,23.10
2023-01-25T12:44:22.985Z,30.60
2023-01-25T12:47:02.274Z,23.90
2023-01-25T12:49:39.787Z,30.60
2023-01-25T12:52:20.880Z,24.70
2023-01-25T12:54:48.359Z,20.10
2023-01-25T12:57:25.397Z,25.57
2023-01-25T13:00:04.313Z,22.73
2023-01-25T13:02:49.230Z,29.73
2023-01-25T13:05:29.291Z,35.63
2023-01-25T13:08:33.336Z,26.07
2023-01-25T13:11:35.156Z,34.03
2023-01-25T13:14:41.168Z,37.43
2023-01-25T13:17:34.260Z,31.67
2023-01-25T13:20:23.279Z,36.80
2023-01-25T13:22:51.859Z,31.77
2023-01-25T13:25:23.227Z,25.03
2023-01-25T13:27:49.788Z,23.60
2023-01-25T13:30:16.274Z,23.70
2023-01-25T13:32:51.668Z,23.20
2023-01-25T13:35:28.556Z,24.90
2023-01-25T13:38:24.679Z,26.00
2023-01-25T13:41:10.587Z,31.40
2023-01-25T13:43:39.665Z,36.10
2023-01-25T13:46:10.059Z,36.97
2023-01-25T13:48:46.541Z,29.47
2023-01-25T13:51:16.725Z,32.03
2023-01-25T13:53:55.100Z,31.03
2023-01-25T13:56:31.435Z,27.00
2023-01-25T13:58:58.169Z,28.50
2023-01-25T14:01:25.298Z,31.53
2023-01-25T14:03:59.458Z,36.30
2023-01-25T14:06:40.289Z,32.53
2023-01-25T14:09:17.476Z,27.47
2023-01-25T14:11:51.278Z,32.17
2023-01-25T14:14:26.963Z,31.73
2023-01-25T14:17:09.681Z,29.60
2023-01-25T14:19:41.005Z,27.50
2023-01-25T14:22:13.640Z,27.43
2023-01-25T14:24:40.472Z,24.97
2023-01-25T14:27:11.861Z,35.33
2023-01-25T14:32:06.041Z,27.93
2023-01-25T14:34:32.589Z,36.90
2023-01-25T14:37:20.819Z,29.17
2023-01-25T14:39:49.679Z,37.50
2023-01-25T14:42:17.330Z,31.43
2023-01-25T14:44:45.055Z,28.10
2023-01-25T14:47:23.077Z,27.93
2023-01-25T14:49:49.819Z,27.63
2023-01-25T14:52:20.502Z,26.33
2023-01-25T14:54:57.353Z,28.43
2023-01-25T14:57:32.654Z,24.70
2023-01-25T15:00:01.246Z,28.97
2023-01-25T15:02:40.869Z,26.90
2023-01-25T15:05:36.420Z,24.90
2023-01-25T15:08:08.748Z,25.70
2023-01-25T15:10:37.118Z,31.00
2023-01-25T15:13:14.520Z,22.27
2023-01-25T15:15:58.245Z,25.83
2023-01-25T15:18:44.976Z,33.73
2023-01-25T15:21:20.216Z,21.13
2023-01-25T15:23:49.282Z,35.67
2023-01-25T15:26:20.406Z,28.10
2023-01-25T15:28:48.198Z,25.40
2023-01-25T15:31:18.367Z,28.30
2023-01-25T15:33:45.301Z,22.87
2023-01-25T15:36:14.470Z,25.87
2023-01-25T15:38:41.728Z,22.90
2023-01-25T15:41:08.399Z,28.90
2023-01-25T15:43:35.032Z,23.23
2023-01-25T15:46:02.250Z,21.30
2023-01-25T15:48:41.894Z,29.93
2023-01-25T15:51:08.442Z,23.40
2023-01-25T15:53:35.290Z,26.97
2023-01-25T15:56:12.006Z,26.17
2023-01-25T15:58:41.159Z,22.80
2023-01-25T16:01:08.514Z,21.77
2023-01-25T16:03:35.283Z,22.30
2023-01-25T16:06:05.442Z,21.07
2023-01-25T16:08:32.160Z,25.47
2023-01-25T16:10:59.323Z,24.20
2023-01-25T16:13:25.890Z,17.70
2023-01-25T16:15:54.826Z,21.10
2023-01-25T16:18:21.392Z,22.83
2023-01-25T16:20:47.902Z,20.33
2023-01-25T16:23:14.425Z,20.53
2023-01-25T16:25:42.524Z,21.57
2023-01-25T16:28:14.273Z,28.33
2023-01-25T16:30:41.181Z,23.97
2023-01-25T16:33:07.722Z,30.03
2023-01-25T16:35:34.260Z,31.37
2023-01-25T16:38:00.895Z,28.13
2023-01-25T16:40:32.383Z,29.70
2023-01-25T16:42:59.065Z,28.33
2023-01-25T16:45:25.901Z,28.00
2023-01-25T16:47:53.264Z,24.10
2023-01-25T16:50:22.151Z,34.73
2023-01-25T16:52:51.312Z,33.37
2023-01-25T16:55:19.257Z,25.83
2023-01-25T16:57:49.984Z,26.47
2023-01-25T17:00:17.417Z,40.00
2023-01-25T17:02:58.191Z,39.80
2023-01-25T17:05:28.991Z,39.20
2023-01-25T17:07:56.129Z,39.67
2023-01-25T17:10:23.305Z,52.00
2023-01-25T17:12:50.616Z,50.60
2023-01-25T17:15:20.084Z,46.53
2023-01-25T17:17:46.786Z,41.07
2023-01-25T17:20:13.307Z,43.13
2023-01-25T17:22:40.844Z,49.10
2023-01-25T17:25:07.567Z,46.60
2023-01-25T17:27:34.054Z,46.07
2023-01-25T17:30:01.157Z,45.50
2023-01-25T17:32:28.730Z,44.03
2023-01-25T17:34:58.863Z,42.70
2023-01-25T17:37:26.005Z,50.60
2023-01-25T17:39:53.471Z,44.10
2023-01-25T17:42:21.174Z,51.10
2023-01-25T17:44:47.666Z,52.63
2023-01-25T17:47:14.610Z,58.50
2023-01-25T17:49:41.093Z,50.87
2023-01-25T17:52:07.609Z,53.47
2023-01-25T17:54:36.214Z,58.10
2023-01-25T17:57:02.761Z,58.80
2023-01-25T17:59:29.328Z,51.77
2023-01-25T18:01:56.146Z,49.87
2023-01-25T18:04:22.855Z,47.43
2023-01-25T18:06:52.525Z,52.40
2023-01-25T18:09:19.054Z,45.90
2023-01-25T18:11:45.992Z,50.57
2023-01-25T18:14:16.797Z,48.80
2023-01-25T18:16:44.418Z,49.00
2023-01-25T18:19:11.891Z,46.77
2023-01-25T18:21:40.595Z,48.30
2023-01-25T18:24:26.430Z,47.53
2023-01-25T18:27:00.102Z,48.27
2023-01-25T18:29:41.501Z,48.27
2023-01-25T18:32:08.305Z,60.73
2023-01-25T18:34:34.967Z,54.73
2023-01-25T18:37:01.502Z,49.90
2023-01-25T18:39:29.270Z,42.17
2023-01-25T18:41:55.772Z,50.47
2023-01-25T18:44:22.361Z,52.70
2023-01-25T18:46:49.056Z,55.37
2023-01-25T18:49:15.672Z,47.47
2023-01-25T18:52:01.942Z,46.13
2023-01-25T18:54:31.089Z,46.10
2023-01-25T18:56:57.616Z,44.33
2023-01-25T18:59:24.117Z,43.43
2023-01-25T19:01:51.098Z,42.00
2023-01-25T19:04:17.990Z,38.53
2023-01-25T19:06:44.746Z,40.80
2023-01-25T19:09:11.241Z,38.57
2023-01-25T19:11:37.741Z,40.90
2023-01-25T19:14:04.278Z,40.40
2023-01-25T19:16:31.016Z,39.17
2023-01-25T19:18:58.106Z,43.40
2023-01-25T19:21:26.801Z,42.90
2023-01-25T19:23:54.944Z,43.53
2023-01-25T19:26:25.415Z,43.53
2023-01-25T19:28:53.151Z,41.70
2023-01-25T19:31:22.570Z,40.10
2023-01-25T19:33:55.077Z,46.20
2023-01-25T19:36:22.249Z,43.70
2023-01-25T19:38:49.468Z,40.57
2023-01-25T19:41:19.154Z,37.70
2023-01-25T19:43:46.511Z,49.33
2023-01-25T19:46:21.392Z,42.50
2023-01-25T19:48:50.221Z,43.93
2023-01-25T19:51:25.251Z,39.20
2023-01-25T19:53:59.151Z,39.47
2023-01-25T19:56:28.011Z,36.60
2023-01-25T19:58:54.698Z,34.47
2023-01-25T20:01:23.358Z,37.57
2023-01-25T20:03:51.074Z,43.13
2023-01-25T20:06:19.461Z,39.77
2023-01-25T20:08:47.866Z,38.80
2023-01-25T20:11:26.725Z,39.80
2023-01-25T20:13:56.443Z,42.67
2023-01-25T20:16:23.955Z,39.17
2023-01-25T20:18:51.142Z,42.10
2023-01-25T20:21:20.843Z,41.93
2023-01-25T20:23:57.953Z,40.30
2023-01-25T20:26:27.754Z,40.23
2023-01-25T20:28:56.121Z,40.80
2023-01-25T20:31:34.880Z,41.80
2023-01-25T20:34:04.359Z,39.40
2023-01-25T20:36:33.550Z,37.37
2023-01-25T20:39:00.312Z,45.40
2023-01-25T20:41:26.881Z,37.13
2023-01-25T20:44:00.622Z,35.10
2023-01-25T20:46:29.438Z,40.77
2023-01-25T20:48:56.046Z,39.83
2023-01-25T20:51:23.891Z,40.77
2023-01-25T20:53:50.935Z,36.90
2023-01-25T20:56:19.072Z,38.03
2023-01-25T20:58:50.392Z,36.10
2023-01-25T21:01:18.497Z,41.37
2023-01-25T21:03:45.012Z,47.77
2023-01-25T21:06:12.304Z,37.50
2023-01-25T21:08:38.838Z,36.07
2023-01-25T21:11:05.724Z,41.10
2023-01-25T21:13:32.395Z,39.37
2023-01-25T21:16:02.496Z,43.57
2023-01-25T21:18:31.781Z,35.77
2023-01-25T21:21:10.593Z,37.33
2023-01-25T21:23:42.198Z,38.03
2023-01-25T21:26:13.564Z,49.20
2023-01-25T21:28:40.125Z,42.13
2023-01-25T21:31:15.374Z,42.10
2023-01-25T21:33:42.354Z,49.97
2023-01-25T21:36:11.520Z,52.43
2023-01-25T21:38:39.473Z,43.37
2023-01-25T21:41:08.281Z,37.47
2023-01-25T21:43:55.625Z,34.40
2023-01-25T21:46:27.186Z,41.67
2023-01-25T21:49:14.186Z,45.43
2023-01-25T21:51:49.508Z,44.67
2023-01-25T21:54:17.772Z,46.00
2023-01-25T21:56:46.126Z,45.13
2023-01-25T21:59:13.246Z,46.60
2023-01-25T22:01:39.759Z,45.77
2023-01-25T22:04:06.557Z,54.93
2023-01-25T22:06:33.221Z,44.03
2023-01-25T22:08:59.750Z,47.70
2023-01-25T22:11:26.304Z,50.93
2023-01-25T22:13:53.998Z,48.73
2023-01-25T22:16:21.405Z,54.27
2023-01-25T22:18:48.927Z,47.43
2023-01-25T22:21:18.487Z,48.83
2023-01-25T22:23:45.627Z,48.50
2023-01-25T22:26:15.346Z,52.33
2023-01-25T22:28:47.748Z,52.97
2023-01-25T22:31:16.360Z,64.47
2023-01-25T22:33:43.716Z,50.10
2023-01-25T22:36:15.301Z,46.20
2023-01-25T22:38:42.144Z,43.40
2023-01-25T22:41:14.440Z,48.27
2023-01-25T22:43:41.373Z,46.53
2023-01-25T22:46:11.297Z,50.07
2023-01-25T22:48:38.043Z,51.20
2023-01-25T22:51:07.447Z,54.73
2023-01-25T22:53:34.607Z,43.60
2023-01-25T22:56:10.544Z,56.20
2023-01-25T22:58:38.776Z,52.20
2023-01-25T23:01:10.209Z,60.57
2023-01-25T23:03:37.698Z,55.53
2023-01-25T23:06:13.308Z,46.77
2023-01-25T23:08:40.690Z,47.60
2023-01-25T23:11:13.451Z,45.40
2023-01-25T23:13:40.779Z,52.20
2023-01-25T23:16:09.683Z,46.53
2023-01-25T23:18:52.037Z,46.30
2023-01-25T23:21:21.272Z,49.60
2023-01-25T23:23:48.623Z,49.30
2023-01-25T23:26:15.759Z,49.80
2023-01-25T23:28:43.211Z,61.50
2023-01-25T23:31:18.387Z,50.37
2023-01-25T23:33:47.144Z,47.20
2023-01-25T23:36:19.429Z,48.40
2023-01-25T23:38:46.510Z,58.00
2023-01-25T23:41:14.541Z,49.63
2023-01-25T23:43:41.823Z,54.40
2023-01-25T23:46:08.760Z,44.70
2023-01-25T23:48:35.454Z,54.80
2023-01-25T23:51:02.555Z,52.83
2023-01-25T23:53:31.461Z,52.63
2023-01-25T23:55:59.257Z,52.67
2023-01-25T23:58:26.104Z,54.50
